Time;durP1;ratioP1;P1;durP2;ratioP2;P2;SDS_P1;SDS_P2;PMS_P1;PMS_P2;Temp;Humidity;BMP_temperature;BMP_pressure;BME280_temperature;BME280_humidity;BME280_pressure;Samples;Min_cycle;Max_cycle;Signal;HPM_P1;HPM_P2
2023/03/18 00:01:53;;;;;;;27.75;22.50;;;12.50;99.90;;;;;;5047321;28;20044;-61
2023/03/18 00:04:19;;;;;;;34.17;24.75;;;10.90;99.90;;;;;;5051316;28;20063;-61
2023/03/18 00:06:45;;;;;;;32.95;26.92;;;10.80;99.90;;;;;;5040352;28;20088;-60
2023/03/18 00:09:12;;;;;;;33.75;26.05;;;10.80;99.90;;;;;;5051876;28;20090;-61
2023/03/18 00:11:38;;;;;;;39.03;27.20;;;12.20;99.90;;;;;;5047814;28;20087;-61
2023/03/18 00:14:04;;;;;;;36.25;27.42;;;10.80;99.90;;;;;;5037863;28;20029;-61
2023/03/18 00:16:29;;;;;;;35.67;27.55;;;12.10;99.90;;;;;;5051636;28;20478;-61
2023/03/18 00:18:56;;;;;;;32.85;27.30;;;11.80;99.90;;;;;;5051474;28;20037;-61
2023/03/18 00:21:22;;;;;;;36.00;27.67;;;10.80;99.90;;;;;;5039477;28;20514;-61
2023/03/18 00:23:49;;;;;;;35.25;27.45;;;12.30;99.90;;;;;;5042800;28;21252;-61
2023/03/18 00:26:16;;;;;;;33.08;26.75;;;10.90;99.90;;;;;;5049692;28;20045;-61
2023/03/18 00:28:41;;;;;;;40.88;28.58;;;12.20;99.90;;;;;;5036827;28;20046;-60
2023/03/18 00:31:12;;;;;;;37.72;28.38;;;10.90;99.90;;;;;;5049707;28;20498;-61
2023/03/18 00:33:39;;;;;;;33.53;28.73;;;11.90;99.90;;;;;;5043516;28;20038;-60
2023/03/18 00:36:08;;;;;;;36.30;29.20;;;11.90;99.90;;;;;;5031110;28;20115;-60
2023/03/18 00:38:35;;;;;;;38.75;29.52;;;11.10;99.90;;;;;;5034529;28;20461;-61
2023/03/18 00:41:10;;;;;;;40.00;29.90;;;10.50;99.90;;;;;;5051359;28;20087;-61
2023/03/18 00:43:44;;;;;;;37.47;31.38;;;10.30;99.90;;;;;;5050506;28;20045;-60
2023/03/18 00:46:18;;;;;;;40.80;31.85;;;10.10;99.90;;;;;;5031254;28;20116;-60
2023/03/18 00:48:45;;;;;;;41.90;31.95;;;11.00;99.90;;;;;;5038459;28;20037;-60
2023/03/18 00:51:13;;;;;;;44.47;34.08;;;10.30;99.90;;;;;;5051231;28;20025;-60
2023/03/18 00:53:59;;;;;;;43.10;35.60;;;11.50;99.90;;;;;;5050887;28;20477;-61
2023/03/18 00:56:26;;;;;;;43.58;35.40;;;10.20;99.90;;;;;;5050317;28;20060;-61
2023/03/18 00:58:53;;;;;;;46.03;35.05;;;11.40;99.90;;;;;;5046427;28;20483;-60
2023/03/18 01:01:19;;;;;;;44.72;35.63;;;11.40;99.90;;;;;;5050686;28;20048;-60
2023/03/18 01:03:46;;;;;;;45.95;36.85;;;10.60;99.90;;;;;;5049999;28;20036;-60
2023/03/18 01:06:15;;;;;;;51.17;37.00;;;9.60;99.90;;;;;;5032608;28;20187;-60
2023/03/18 01:08:41;;;;;;;46.55;35.70;;;10.40;99.90;;;;;;5045467;28;20037;-60
2023/03/18 01:11:07;;;;;;;46.80;36.90;;;10.80;99.90;;;;;;5036289;28;20041;-60
2023/03/18 01:13:34;;;;;;;46.95;38.83;;;11.00;99.90;;;;;;5044000;28;20073;-60
2023/03/18 01:16:00;;;;;;;49.38;37.42;;;9.40;99.90;;;;;;5050869;28;20613;-60
2023/03/18 01:18:26;;;;;;;50.47;37.63;;;11.00;99.90;;;;;;5040575;28;20510;-60
2023/03/18 01:20:53;;;;;;;50.80;38.65;;;10.90;99.90;;;;;;5048667;28;20041;-61
2023/03/18 01:23:18;;;;;;;47.22;37.13;;;9.20;99.90;;;;;;5045004;28;20093;-60
2023/03/18 01:25:44;;;;;;;52.20;39.92;;;9.80;99.90;;;;;;5030646;28;20068;-60
2023/03/18 01:28:12;;;;;;;48.78;38.03;;;9.10;99.90;;;;;;5030719;28;20076;-60
2023/03/18 01:30:38;;;;;;;52.65;38.67;;;11.00;99.90;;;;;;5030739;28;20041;-60
2023/03/18 01:33:05;;;;;;;53.75;38.97;;;9.50;99.90;;;;;;5035441;28;20128;-60
2023/03/18 01:35:31;;;;;;;48.25;36.35;;;10.60;99.90;;;;;;5041856;28;20041;-60
2023/03/18 01:37:58;;;;;;;53.53;38.00;;;9.20;99.90;;;;;;5050516;28;20045;-61
2023/03/18 01:40:24;;;;;;;54.10;40.25;;;9.10;99.90;;;;;;5048863;28;20045;-60
2023/03/18 01:43:03;;;;;;;57.50;41.08;;;9.50;99.90;;;;;;5056557;28;20055;-60
2023/03/18 01:45:30;;;;;;;53.25;39.55;;;9.40;99.90;;;;;;5047807;28;20045;-61
2023/03/18 01:47:57;;;;;;;51.97;40.55;;;8.70;99.90;;;;;;5048567;28;20091;-61
2023/03/18 01:50:30;;;;;;;58.28;43.70;;;8.60;99.90;;;;;;5050319;28;20557;-60
2023/03/18 01:53:01;;;;;;;57.95;43.92;;;10.20;99.90;;;;;;5046083;28;20120;-60
2023/03/18 01:55:30;;;;;;;60.30;43.80;;;9.30;99.90;;;;;;5050368;28;20049;-60
2023/03/18 01:57:57;;;;;;;57.17;44.08;;;10.10;99.90;;;;;;5039247;28;20045;-60
2023/03/18 02:00:23;;;;;;;61.13;44.63;;;10.20;99.90;;;;;;5046573;28;20032;-60
2023/03/18 02:02:51;;;;;;;58.55;42.95;;;10.00;99.90;;;;;;5050092;28;20418;-60
2023/03/18 02:05:23;;;;;;;61.45;45.00;;;9.90;99.90;;;;;;5048467;28;20037;-60
2023/03/18 02:07:50;;;;;;;60.47;44.22;;;8.50;99.90;;;;;;5047227;28;20032;-60
2023/03/18 02:10:20;;;;;;;64.75;46.35;;;8.30;99.90;;;;;;5050543;28;20095;-60
2023/03/18 02:12:57;;;;;;;66.40;47.53;;;9.90;99.90;;;;;;5049426;28;20151;-61
2023/03/18 02:15:26;;;;;;;59.22;46.22;;;9.20;99.90;;;;;;5050193;28;20037;-60
2023/03/18 02:18:06;;;;;;;64.53;46.90;;;8.30;99.90;;;;;;5031425;28;20077;-60
2023/03/18 02:20:56;;;;;;;61.88;47.15;;;10.10;99.90;;;;;;5035654;28;20129;-61
2023/03/18 02:23:41;;;;;;;65.28;48.35;;;8.40;99.90;;;;;;5049658;28;20564;-60
2023/03/18 02:26:31;;;;;;;62.38;46.38;;;8.10;99.90;;;;;;5049646;28;20670;-60
2023/03/18 02:29:03;;;;;;;67.13;47.85;;;8.10;99.90;;;;;;5043337;28;20495;-60
2023/03/18 02:31:30;;;;;;;60.78;45.75;;;9.10;99.90;;;;;;5051285;28;20045;-60
2023/03/18 02:33:57;;;;;;;56.17;45.03;;;7.90;99.90;;;;;;5045311;28;20056;-60
2023/03/18 02:36:27;;;;;;;62.25;46.53;;;9.60;99.90;;;;;;5051843;28;20041;-60
2023/03/18 02:38:53;;;;;;;66.90;47.10;;;8.40;99.90;;;;;;5049751;28;20038;-61
2023/03/18 02:41:22;;;;;;;67.25;46.75;;;8.50;99.90;;;;;;5049521;28;20109;-60
2023/03/18 02:43:49;;;;;;;65.90;47.95;;;8.00;99.90;;;;;;5053546;28;20037;-60
2023/03/18 02:46:49;;;;;;;75.90;53.35;;;9.40;99.90;;;;;;5053294;28;20052;-60
2023/03/18 02:49:17;;;;;;;82.22;52.65;;;8.70;99.90;;;;;;5045799;28;20069;-60
2023/03/18 02:51:43;;;;;;;79.03;54.20;;;10.00;99.90;;;;;;5051422;28;20491;-60
2023/03/18 02:54:16;;;;;;;80.25;56.03;;;9.70;99.90;;;;;;5046396;28;20075;-60
2023/03/18 02:56:42;;;;;;;89.13;55.70;;;9.80;99.90;;;;;;5051779;28;20049;-60
2023/03/18 02:59:09;;;;;;;86.75;57.25;;;8.50;99.90;;;;;;5049911;28;20069;-60
2023/03/18 03:01:36;;;;;;;81.40;56.53;;;8.20;99.90;;;;;;5034747;28;20410;-60
2023/03/18 03:04:02;;;;;;;80.70;55.35;;;8.50;99.90;;;;;;5052811;28;20072;-60
2023/03/18 03:06:28;;;;;;;77.97;54.78;;;9.40;99.90;;;;;;5050593;28;20124;-60
2023/03/18 03:08:54;;;;;;;86.28;58.58;;;10.20;99.90;;;;;;5051165;28;20124;-60
2023/03/18 03:11:20;;;;;;;87.20;57.35;;;8.70;99.90;;;;;;5047802;28;20037;-60
2023/03/18 03:13:46;;;;;;;88.00;57.35;;;9.10;99.90;;;;;;5032942;28;20041;-60
2023/03/18 03:16:13;;;;;;;90.28;59.75;;;10.10;99.90;;;;;;5031515;28;20042;-60
2023/03/18 03:18:39;;;;;;;92.78;60.10;;;8.80;99.90;;;;;;5041761;28;20460;-60
2023/03/18 03:21:05;;;;;;;88.20;59.10;;;8.40;99.90;;;;;;5052110;28;20116;-60
2023/03/18 03:23:31;;;;;;;93.72;61.90;;;9.70;99.90;;;;;;5052831;28;20041;-60
2023/03/18 03:25:57;;;;;;;299.25;66.47;;;8.30;99.90;;;;;;5051488;28;20053;-61
2023/03/18 03:28:23;;;;;;;467.02;73.57;;;10.20;99.90;;;;;;5052639;28;20376;-60
2023/03/18 03:30:49;;;;;;;406.98;60.78;;;8.70;99.90;;;;;;5049199;28;20525;-60
2023/03/18 03:33:15;;;;;;;467.30;62.20;;;10.10;99.90;;;;;;5048054;28;20037;-60
2023/03/18 03:35:40;;;;;;;525.63;62.00;;;8.50;99.90;;;;;;5032252;28;20127;-61
2023/03/18 03:38:07;;;;;;;553.90;64.90;;;10.30;99.90;;;;;;5049486;28;21230;-60
2023/03/18 03:40:33;;;;;;;557.50;67.07;;;9.90;99.90;;;;;;5039680;28;20069;-60
2023/03/18 03:42:58;;;;;;;417.77;54.65;;;8.20;99.90;;;;;;5032478;28;20125;-60
2023/03/18 03:45:24;;;;;;;420.70;47.83;;;8.00;99.90;;;;;;5032265;28;20042;-60
2023/03/18 03:47:50;;;;;;;388.20;41.08;;;9.50;99.90;;;;;;5044306;28;20444;-60
2023/03/18 03:50:16;;;;;;;328.33;32.05;;;9.80;99.90;;;;;;5048343;28;20037;-60
2023/03/18 03:52:42;;;;;;;527.80;42.60;;;8.60;99.90;;;;;;5052107;28;20060;-60
2023/03/18 03:55:11;;;;;;;524.50;39.95;;;9.80;99.90;;;;;;5047022;28;20041;-60
2023/03/18 03:57:37;;;;;;;386.08;36.58;;;9.90;99.90;;;;;;5052175;28;20076;-60
2023/03/18 04:00:06;;;;;;;323.33;32.22;;;7.90;99.90;;;;;;5048369;28;20137;-59
2023/03/18 04:02:31;;;;;;;287.27;28.88;;;7.90;99.90;;;;;;5032248;28;20034;-60
2023/03/18 04:04:57;;;;;;;301.55;29.85;;;10.00;99.90;;;;;;5034056;28;20406;-60
2023/03/18 04:07:23;;;;;;;338.38;31.13;;;9.90;99.90;;;;;;5040958;28;20053;-59
2023/03/18 04:09:48;;;;;;;230.60;26.05;;;7.80;99.90;;;;;;5033588;28;20069;-60
2023/03/18 04:12:17;;;;;;;386.58;33.40;;;8.60;99.90;;;;;;5049349;28;20033;-60
2023/03/18 04:14:42;;;;;;;303.45;28.60;;;7.80;99.90;;;;;;5043414;28;20045;-60
2023/03/18 04:17:08;;;;;;;325.83;30.17;;;7.70;99.90;;;;;;5044680;28;20114;-60
2023/03/18 04:19:34;;;;;;;390.35;32.75;;;9.20;99.90;;;;;;5051379;28;20115;-60
2023/03/18 04:22:00;;;;;;;355.25;30.58;;;7.60;99.90;;;;;;5051147;28;20045;-60
2023/03/18 04:24:26;;;;;;;443.25;35.10;;;7.60;99.90;;;;;;5048524;28;20051;-60
2023/03/18 04:26:51;;;;;;;427.85;35.58;;;8.00;99.90;;;;;;5042285;28;20110;-60
2023/03/18 04:29:17;;;;;;;335.55;30.38;;;9.80;99.90;;;;;;5031302;28;20041;-60
2023/03/18 04:31:43;;;;;;;452.48;35.67;;;7.90;99.90;;;;;;5047429;28;20055;-60
2023/03/18 04:34:09;;;;;;;442.63;35.67;;;9.20;99.90;;;;;;5045730;28;20041;-60
2023/03/18 04:36:35;;;;;;;438.27;33.20;;;8.00;99.90;;;;;;5033614;28;20120;-60
2023/03/18 04:39:01;;;;;;;462.17;34.88;;;9.90;99.90;;;;;;5037486;28;20120;-59
2023/03/18 04:41:27;;;;;;;442.50;34.05;;;9.80;99.90;;;;;;5033546;28;20033;-59
2023/03/18 04:43:53;;;;;;;330.25;29.95;;;8.90;99.90;;;;;;5034953;28;20037;-60
2023/03/18 04:46:19;;;;;;;620.50;50.65;;;8.80;99.90;;;;;;5050495;28;20532;-59
2023/03/18 04:48:45;;;;;;;308.00;34.13;;;7.90;99.90;;;;;;5033724;28;20033;-60
2023/03/18 04:51:11;;;;;;;413.33;38.10;;;7.80;99.90;;;;;;5044814;28;20033;-60
2023/03/18 04:53:37;;;;;;;342.33;34.42;;;8.00;99.90;;;;;;5042896;28;20036;-60
2023/03/18 04:56:04;;;;;;;484.25;38.42;;;8.80;99.90;;;;;;5050008;28;20051;-59
2023/03/18 04:58:29;;;;;;;409.38;35.80;;;7.90;99.90;;;;;;5047807;28;20033;-60
2023/03/18 05:00:55;;;;;;;572.15;47.78;;;9.10;99.90;;;;;;5046064;28;20509;-60
2023/03/18 05:03:21;;;;;;;484.92;38.38;;;7.80;99.90;;;;;;5037034;28;20041;-59
2023/03/18 05:05:48;;;;;;;518.60;38.40;;;8.40;99.90;;;;;;5044584;28;20099;-60
2023/03/18 05:08:14;;;;;;;432.40;37.90;;;9.40;99.90;;;;;;5036443;28;20037;-60
2023/03/18 05:10:40;;;;;;;278.15;30.63;;;8.50;99.90;;;;;;5049714;28;20120;-60
2023/03/18 05:13:06;;;;;;;479.42;40.45;;;8.00;99.90;;;;;;5033477;28;20094;-60
2023/03/18 05:15:32;;;;;;;529.60;43.13;;;7.80;99.90;;;;;;5049551;28;20132;-60
2023/03/18 05:17:59;;;;;;;530.70;44.72;;;9.50;99.90;;;;;;5036490;28;20049;-59
2023/03/18 05:20:24;;;;;;;559.13;43.45;;;9.40;99.90;;;;;;5035400;28;20037;-60
2023/03/18 05:22:51;;;;;;;597.35;44.95;;;9.40;99.90;;;;;;5038478;28;20156;-60
2023/03/18 05:25:17;;;;;;;539.38;42.55;;;8.00;99.90;;;;;;5042149;28;20462;-60
2023/03/18 05:27:44;;;;;;;730.35;54.03;;;8.20;99.90;;;;;;5048066;28;20051;-60
2023/03/18 05:30:11;;;;;;;479.33;38.28;;;8.40;99.90;;;;;;5042621;28;20159;-60
2023/03/18 05:32:37;;;;;;;503.35;42.50;;;9.40;99.90;;;;;;5036058;28;20029;-60
2023/03/18 05:35:04;;;;;;;545.83;45.22;;;9.50;99.90;;;;;;5044979;28;20119;-60
2023/03/18 05:37:30;;;;;;;516.13;42.45;;;9.70;99.90;;;;;;5035274;28;20156;-60
2023/03/18 05:39:55;;;;;;;495.17;39.20;;;9.10;99.90;;;;;;5033162;28;20116;-60
2023/03/18 05:42:21;;;;;;;426.10;36.55;;;9.60;99.90;;;;;;5046991;28;20049;-60
2023/03/18 05:44:47;;;;;;;445.85;32.65;;;9.40;99.90;;;;;;5030275;28;20038;-60
2023/03/18 05:47:12;;;;;;;509.80;36.20;;;8.20;99.90;;;;;;5029855;28;20045;-59
2023/03/18 05:49:38;;;;;;;410.08;31.80;;;8.90;99.90;;;;;;5029281;28;20068;-60
2023/03/18 05:52:04;;;;;;;412.30;32.40;;;9.20;99.90;;;;;;5042613;28;20037;-60
2023/03/18 05:54:29;;;;;;;437.05;35.00;;;9.00;99.90;;;;;;5034461;28;20449;-60
2023/03/18 05:56:55;;;;;;;443.23;35.25;;;8.90;99.90;;;;;;5047309;28;20077;-60
2023/03/18 05:59:22;;;;;;;407.63;34.22;;;9.20;99.90;;;;;;5048695;28;20039;-60
2023/03/18 06:01:49;;;;;;;392.58;35.22;;;9.30;99.90;;;;;;5045207;28;20123;-60
2023/03/18 06:04:16;;;;;;;413.83;35.45;;;8.30;99.90;;;;;;5046827;28;20497;-60
2023/03/18 06:06:42;;;;;;;428.25;39.33;;;9.70;99.90;;;;;;5046279;28;20040;-60
2023/03/18 06:09:09;;;;;;;440.10;39.47;;;8.70;99.90;;;;;;5042164;28;20509;-60
2023/03/18 06:11:35;;;;;;;595.15;53.33;;;8.80;99.90;;;;;;5039614;28;20499;-60
2023/03/18 06:14:02;;;;;;;409.20;47.47;;;9.80;99.90;;;;;;5051880;28;20083;-60
2023/03/18 06:16:27;;;;;;;258.38;44.70;;;9.00;99.90;;;;;;5048694;28;20041;-60
2023/03/18 06:18:54;;;;;;;210.80;45.67;;;9.10;99.90;;;;;;5052870;28;20183;-61
2023/03/18 06:21:19;;;;;;;112.45;48.80;;;8.20;99.90;;;;;;5046315;28;20087;-60
2023/03/18 06:23:45;;;;;;;95.13;47.80;;;9.80;99.90;;;;;;5050224;28;20052;-60
2023/03/18 06:26:10;;;;;;;105.13;49.20;;;9.70;99.90;;;;;;5046422;28;20452;-60
2023/03/18 06:28:36;;;;;;;104.85;49.88;;;8.40;99.90;;;;;;5050398;28;20041;-60
2023/03/18 06:31:02;;;;;;;111.80;52.33;;;8.90;99.90;;;;;;5052713;28;20174;-60
2023/03/18 06:33:28;;;;;;;97.43;50.15;;;10.10;99.90;;;;;;5045731;28;20389;-60
2023/03/18 06:35:55;;;;;;;101.10;53.67;;;9.90;99.90;;;;;;5033625;28;20045;-60
2023/03/18 06:38:21;;;;;;;84.22;50.47;;;9.80;99.90;;;;;;5044881;28;20075;-60
2023/03/18 06:40:46;;;;;;;93.28;54.78;;;8.60;99.90;;;;;;5051359;28;20044;-60
2023/03/18 06:43:12;;;;;;;104.93;56.97;;;9.90;99.90;;;;;;5053608;28;20487;-60
2023/03/18 06:45:39;;;;;;;110.43;58.80;;;9.50;99.90;;;;;;5053758;28;20402;-60
2023/03/18 06:48:06;;;;;;;92.78;57.95;;;10.50;99.90;;;;;;5053693;28;20072;-60
2023/03/18 06:50:32;;;;;;;117.03;63.17;;;8.90;99.90;;;;;;5046829;28;20033;-60
2023/03/18 06:52:58;;;;;;;90.80;54.55;;;10.60;99.90;;;;;;5051669;28;20485;-60
2023/03/18 06:55:25;;;;;;;84.07;53.55;;;9.90;99.90;;;;;;5053311;28;20491;-60
2023/03/18 06:57:51;;;;;;;80.20;53.45;;;10.70;99.90;;;;;;5050797;28;20082;-60
2023/03/18 07:00:17;;;;;;;83.18;53.58;;;9.30;99.90;;;;;;5036413;28;20091;-60
2023/03/18 07:02:43;;;;;;;79.38;51.35;;;9.40;99.90;;;;;;5046417;28;20049;-61
2023/03/18 07:05:09;;;;;;;80.20;52.78;;;10.90;99.90;;;;;;5039707;28;20106;-60
2023/03/18 07:07:36;;;;;;;87.20;50.95;;;10.90;99.90;;;;;;5041890;28;20036;-60
2023/03/18 07:10:06;;;;;;;74.82;48.97;;;9.60;99.90;;;;;;5039733;28;20079;-60
2023/03/18 07:12:32;;;;;;;69.70;48.03;;;9.50;99.90;;;;;;5049292;28;20039;-60
2023/03/18 07:14:58;;;;;;;69.90;48.17;;;9.40;99.90;;;;;;5049559;28;20124;-60
2023/03/18 07:17:23;;;;;;;69.60;48.35;;;9.40;99.90;;;;;;5044327;28;20045;-60
2023/03/18 07:19:50;;;;;;;66.32;49.22;;;11.20;99.90;;;;;;5040358;28;20041;-60
2023/03/18 07:22:16;;;;;;;66.90;48.60;;;11.20;99.90;;;;;;5039854;28;20103;-60
2023/03/18 07:24:44;;;;;;;63.05;47.60;;;9.50;99.90;;;;;;5036441;28;20136;-60
2023/03/18 07:27:12;;;;;;;73.00;50.28;;;9.50;99.90;;;;;;5035114;28;20058;-60
2023/03/18 07:29:38;;;;;;;66.25;46.72;;;9.80;99.90;;;;;;5039188;28;20038;-60
2023/03/18 07:32:04;;;;;;;70.15;48.30;;;9.60;99.90;;;;;;5041928;28;20037;-60
2023/03/18 07:34:29;;;;;;;63.25;46.50;;;11.60;99.90;;;;;;5034389;28;20064;-60
2023/03/18 07:36:56;;;;;;;61.03;46.80;;;10.80;99.90;;;;;;5032167;28;20451;-60
2023/03/18 07:39:22;;;;;;;70.50;48.55;;;10.20;99.90;;;;;;5034440;28;20112;-60
2023/03/18 07:41:48;;;;;;;69.00;48.28;;;10.60;99.90;;;;;;5038071;28;20111;-60
2023/03/18 07:44:14;;;;;;;71.97;50.45;;;10.20;99.90;;;;;;5044028;28;20559;-60
2023/03/18 07:46:40;;;;;;;65.72;49.22;;;11.10;99.90;;;;;;5044063;28;20119;-61
2023/03/18 07:49:05;;;;;;;63.75;49.03;;;10.10;99.90;;;;;;5050430;28;20494;-60
2023/03/18 07:51:31;;;;;;;63.63;47.15;;;10.30;99.90;;;;;;5046327;28;20092;-61
2023/03/18 07:53:57;;;;;;;59.08;43.55;;;12.10;99.90;;;;;;5036409;28;20072;-60
2023/03/18 07:56:23;;;;;;;60.72;45.10;;;10.40;99.90;;;;;;5032735;28;20086;-61
2023/03/18 07:58:49;;;;;;;61.95;43.95;;;10.50;99.90;;;;;;5033894;28;20041;-60
2023/03/18 08:01:17;;;;;;;57.42;42.38;;;11.10;99.90;;;;;;5031411;28;20069;-61
2023/03/18 08:03:43;;;;;;;54.33;43.50;;;10.40;99.90;;;;;;5046924;28;20041;-65
2023/03/18 08:06:10;;;;;;;52.55;42.05;;;12.40;99.90;;;;;;5040871;28;20076;-60
2023/03/18 08:08:36;;;;;;;62.40;45.25;;;12.60;99.90;;;;;;5035472;28;20049;-60
2023/03/18 08:11:02;;;;;;;57.33;43.60;;;12.20;99.90;;;;;;5036172;28;20033;-61
2023/03/18 08:13:27;;;;;;;50.90;39.88;;;12.30;99.90;;;;;;5035239;28;20552;-61
2023/03/18 08:15:55;;;;;;;58.60;40.25;;;11.00;99.90;;;;;;5040016;28;20127;-60
2023/03/18 08:18:22;;;;;;;51.63;40.42;;;11.70;99.90;;;;;;5034774;28;20036;-60
2023/03/18 08:20:48;;;;;;;52.65;41.58;;;10.60;99.90;;;;;;5035144;28;20411;-60
2023/03/18 08:23:13;;;;;;;59.97;43.22;;;10.80;99.90;;;;;;5040518;28;20041;-60
2023/03/18 08:25:40;;;;;;;58.10;41.92;;;11.90;99.90;;;;;;5045994;28;20049;-60
2023/03/18 08:28:06;;;;;;;53.50;40.42;;;10.70;99.90;;;;;;5043789;28;20053;-60
2023/03/18 08:30:33;;;;;;;47.85;39.38;;;10.40;99.90;;;;;;5033854;28;20036;-60
2023/03/18 08:32:59;;;;;;;56.47;42.55;;;11.10;99.90;;;;;;5046278;28;20037;-60
2023/03/18 08:35:25;;;;;;;58.45;43.63;;;12.50;99.90;;;;;;5043284;28;20181;-61
2023/03/18 08:37:52;;;;;;;48.25;39.40;;;10.40;99.90;;;;;;5035664;28;20116;-60
2023/03/18 08:40:19;;;;;;;53.15;41.58;;;10.40;99.90;;;;;;5040736;28;20037;-60
2023/03/18 08:42:45;;;;;;;52.70;40.00;;;10.40;99.90;;;;;;5035240;28;20041;-60
2023/03/18 08:45:12;;;;;;;50.53;40.33;;;10.50;99.90;;;;;;5046138;28;20048;-60
2023/03/18 08:47:37;;;;;;;46.60;37.33;;;10.90;99.90;;;;;;5043445;28;20048;-60
2023/03/18 08:50:04;;;;;;;50.50;39.92;;;12.60;99.90;;;;;;5045480;28;20033;-60
2023/03/18 08:52:31;;;;;;;53.08;39.15;;;12.70;99.90;;;;;;5046436;28;20111;-60
2023/03/18 08:54:57;;;;;;;49.50;38.25;;;12.10;99.90;;;;;;5038381;28;20053;-60
2023/03/18 08:57:23;;;;;;;49.80;39.00;;;12.10;99.90;;;;;;5042478;28;20039;-60
2023/03/18 08:59:49;;;;;;;52.33;37.60;;;12.30;99.90;;;;;;5042061;28;20040;-60
2023/03/18 09:02:15;;;;;;;46.70;37.58;;;12.70;99.90;;;;;;5050956;28;20036;-61
2023/03/18 09:04:41;;;;;;;49.63;37.15;;;10.70;99.90;;;;;;5042574;28;20031;-60
2023/03/18 09:07:08;;;;;;;44.28;35.55;;;13.30;99.90;;;;;;5041623;28;20048;-60
2023/03/18 09:09:33;;;;;;;43.40;34.25;;;11.50;99.90;;;;;;5032484;28;20045;-60
2023/03/18 09:12:00;;;;;;;41.28;33.65;;;11.40;99.90;;;;;;5036406;28;20052;-61
2023/03/18 09:14:26;;;;;;;42.88;32.60;;;13.00;99.90;;;;;;5040885;28;20040;-61
2023/03/18 09:16:53;;;;;;;40.95;32.28;;;10.90;99.90;;;;;;5028924;28;20048;-61
2023/03/18 09:19:19;;;;;;;42.80;31.98;;;13.00;99.90;;;;;;5040036;28;20045;-61
2023/03/18 09:21:45;;;;;;;33.75;29.10;;;12.60;99.90;;;;;;5035022;28;20057;-61
2023/03/18 09:24:10;;;;;;;39.45;28.63;;;11.70;99.90;;;;;;5044817;28;20513;-61
2023/03/18 09:26:38;;;;;;;34.97;29.70;;;11.20;99.90;;;;;;5040613;28;20037;-62
2023/03/18 09:29:03;;;;;;;34.35;27.33;;;11.50;99.90;;;;;;5035148;28;20615;-61
2023/03/18 09:31:29;;;;;;;39.28;29.33;;;13.60;99.90;;;;;;5050343;28;20136;-61
2023/03/18 09:33:55;;;;;;;35.70;28.48;;;13.20;99.90;;;;;;5042032;28;20059;-62
2023/03/18 09:36:21;;;;;;;37.25;29.15;;;13.50;99.90;;;;;;5039097;28;20476;-62
2023/03/18 09:38:47;;;;;;;36.90;26.60;;;12.80;99.90;;;;;;5044233;28;20037;-61
2023/03/18 09:41:49;;;;;;;37.83;29.15;;;12.10;99.90;;;;;;5039314;28;20043;-61
2023/03/18 09:44:23;;;;;;;34.35;28.27;;;11.70;99.90;;;;;;5043800;28;20038;-61
2023/03/18 09:46:58;;;;;;;39.03;28.65;;;13.90;99.90;;;;;;5045515;28;20045;-61
2023/03/18 09:49:33;;;;;;;33.60;26.95;;;12.10;99.90;;;;;;5037510;28;20041;-61
2023/03/18 09:52:22;;;;;;;34.50;25.77;;;12.10;99.90;;;;;;5038316;28;20458;-61
2023/03/18 09:55:01;;;;;;;25.95;22.60;;;14.00;99.90;;;;;;5040587;28;20048;-61
2023/03/18 09:57:38;;;;;;;25.75;20.38;;;13.10;99.90;;;;;;5050955;28;20511;-61
2023/03/18 10:00:16;;;;;;;24.88;20.38;;;13.30;99.90;;;;;;5046395;28;20084;-61
2023/03/18 10:02:58;;;;;;;22.52;16.77;;;14.90;99.90;;;;;;5049935;28;20064;-61
2023/03/18 10:05:52;;;;;;;22.00;13.52;;;13.70;99.90;;;;;;5056878;28;20071;-61
2023/03/18 10:08:37;;;;;;;17.45;12.50;;;14.50;99.90;;;;;;5036806;28;20055;-62
2023/03/18 10:11:06;;;;;;;16.17;11.30;;;16.40;99.90;;;;;;5036589;28;20049;-61
2023/03/18 10:13:52;;;;;;;18.13;10.95;;;16.50;99.90;;;;;;5045171;28;20051;-61
2023/03/18 10:16:24;;;;;;;14.60;9.43;;;15.10;99.90;;;;;;5045513;28;20044;-61
2023/03/18 10:18:50;;;;;;;14.63;9.80;;;16.00;99.90;;;;;;5056451;28;20045;-61
2023/03/18 10:21:41;;;;;;;11.63;8.02;;;15.20;99.90;;;;;;5042831;28;20046;-61
2023/03/18 10:24:21;;;;;;;11.32;7.85;;;16.20;99.90;;;;;;5053885;28;20465;-61
2023/03/18 10:26:53;;;;;;;9.63;7.63;;;16.90;99.90;;;;;;5040547;28;20128;-62
2023/03/18 10:29:54;;;;;;;10.68;7.35;;;17.00;99.90;;;;;;5051348;28;20055;-61
2023/03/18 10:32:27;;;;;;;11.75;7.50;;;16.90;99.90;;;;;;5029571;28;20106;-61
2023/03/18 10:34:56;;;;;;;8.23;5.70;;;14.60;99.90;;;;;;5030178;28;20429;-61
2023/03/18 10:38:01;;;;;;;7.93;5.47;;;15.30;99.90;;;;;;5043070;28;20041;-61
2023/03/18 10:40:37;;;;;;;5.65;3.97;;;15.90;99.90;;;;;;5049509;28;20044;-62
2023/03/18 10:43:05;;;;;;;6.93;4.30;;;15.20;99.90;;;;;;5053190;28;20124;-61
2023/03/18 10:45:33;;;;;;;6.22;4.00;;;16.90;99.90;;;;;;5045537;28;20048;-62
2023/03/18 10:48:04;;;;;;;5.68;4.00;;;16.50;99.90;;;;;;5047847;28;20041;-61
2023/03/18 10:51:11;;;;;;;6.50;3.85;;;15.90;99.90;;;;;;5047936;28;20375;-61
2023/03/18 10:54:06;;;;;;;4.05;3.40;;;17.30;99.90;;;;;;5043877;28;20053;-61
2023/03/18 10:56:34;;;;;;;6.45;3.80;;;17.40;99.90;;;;;;5040875;28;20103;-61
2023/03/18 10:59:00;;;;;;;5.20;3.40;;;17.60;99.90;;;;;;5048061;28;20071;-61
2023/03/18 11:01:27;;;;;;;3.80;2.45;;;17.00;99.90;;;;;;5033295;28;20140;-61
2023/03/18 11:04:20;;;;;;;4.28;3.10;;;15.90;99.90;;;;;;5046688;28;20032;-60
2023/03/18 11:06:56;;;;;;;4.57;2.92;;;16.00;99.90;;;;;;5051570;28;20442;-60
2023/03/18 11:09:30;;;;;;;4.03;2.50;;;17.40;99.90;;;;;;5047814;28;20049;-61
2023/03/18 11:12:01;;;;;;;4.85;2.45;;;16.00;99.90;;;;;;5048370;28;20049;-61
2023/03/18 11:14:30;;;;;;;3.88;2.67;;;17.50;99.90;;;;;;5050679;28;20037;-60
2023/03/18 11:16:56;;;;;;;3.85;2.30;;;16.30;1.00;;;;;;5048237;28;20079;-60
2023/03/18 11:19:31;;;;;;;5.40;2.90;;;17.60;99.90;;;;;;5051706;28;20047;-60
2023/03/18 11:22:12;;;;;;;4.63;2.70;;;17.60;99.90;;;;;;5051425;28;20056;-61
2023/03/18 11:24:41;;;;;;;5.85;2.88;;;16.90;99.90;;;;;;5044489;28;20124;-61
2023/03/18 11:27:15;;;;;;;3.83;2.60;;;17.20;99.90;;;;;;5034309;28;20052;-61
2023/03/18 11:29:45;;;;;;;5.57;3.50;;;17.00;1.00;;;;;;5031976;28;20096;-62
2023/03/18 11:32:29;;;;;;;5.05;3.50;;;16.10;1.00;;;;;;5039338;28;20418;-62
2023/03/18 11:35:01;;;;;;;4.45;3.53;;;17.00;99.90;;;;;;5047787;28;20045;-61
2023/03/18 11:37:36;;;;;;;6.35;4.07;;;17.00;99.90;;;;;;5042407;28;20044;-61
2023/03/18 11:40:13;;;;;;;6.35;4.78;;;16.90;99.90;;;;;;5034105;28;20037;-62
2023/03/18 11:42:41;;;;;;;6.50;4.68;;;16.80;85.10;;;;;;5036266;28;20525;-62
2023/03/18 11:45:17;;;;;;;6.50;4.97;;;16.30;52.20;;;;;;5039914;28;20486;-62
2023/03/18 11:47:44;;;;;;;11.45;8.02;;;16.30;1.00;;;;;;5048405;28;20059;-62
2023/03/18 11:50:18;;;;;;;11.13;7.00;;;16.30;99.90;;;;;;5044787;28;20041;-61
2023/03/18 11:53:12;;;;;;;8.27;6.50;;;16.30;99.90;;;;;;5036138;28;20443;-61
2023/03/18 11:56:04;;;;;;;8.57;7.30;;;17.20;99.90;;;;;;5051099;28;20524;-61
2023/03/18 11:58:39;;;;;;;13.70;9.10;;;16.40;99.90;;;;;;5050848;28;20052;-61
2023/03/18 12:01:05;;;;;;;18.40;11.90;;;16.20;99.90;;;;;;5043895;28;20045;-61
2023/03/18 12:04:03;;;;;;;6.63;4.97;;;16.70;1.00;;;;;;5044411;28;20041;-61
2023/03/18 12:06:31;;;;;;;6.43;4.97;;;16.80;99.90;;;;;;5038634;28;20034;-61
2023/03/18 12:09:13;;;;;;;8.93;6.95;;;17.10;1.00;;;;;;5036858;28;20064;-61
2023/03/18 12:11:56;;;;;;;11.43;7.68;;;16.90;1.00;;;;;;5030953;28;20816;-61
2023/03/18 12:14:44;;;;;;;8.95;6.68;;;16.80;1.00;;;;;;5038842;28;20032;-61
2023/03/18 12:17:45;;;;;;;11.88;8.07;;;16.20;1.00;;;;;;5037110;28;20095;-61
2023/03/18 12:20:11;;;;;;;9.57;7.13;;;16.10;1.00;;;;;;5033751;28;20057;-66
2023/03/18 12:22:44;;;;;;;11.50;7.97;;;16.20;99.90;;;;;;5045492;28;20103;-61
2023/03/18 12:25:40;;;;;;;12.43;8.82;;;16.90;99.90;;;;;;5050840;28;20047;-61
2023/03/18 12:28:24;;;;;;;14.40;9.47;;;16.80;99.90;;;;;;5051384;28;20147;-61
2023/03/18 12:31:12;;;;;;;9.43;6.85;;;16.70;99.90;;;;;;5046253;28;20127;-61
2023/03/18 12:33:55;;;;;;;9.98;7.32;;;17.10;99.90;;;;;;5036891;28;20128;-61
2023/03/18 12:36:58;;;;;;;7.57;5.03;;;16.30;99.90;;;;;;5050650;28;20045;-61
2023/03/18 12:39:34;;;;;;;6.63;4.90;;;16.30;46.20;;;;;;5047991;28;20037;-62
2023/03/18 12:42:15;;;;;;;8.25;4.40;;;16.60;1.00;;;;;;5040288;28;20037;-62
2023/03/18 12:45:11;;;;;;;6.90;4.35;;;16.00;1.00;;;;;;5043800;28;20037;-61
2023/03/18 12:47:47;;;;;;;6.57;5.03;;;16.50;1.00;;;;;;5043872;28;20091;-61